Jordan Harbour

*Note: All times are displayed in the local standard time of the station location.
**Rain - Equipment is designed to accurately record liquid precipitation; under conditions when precipitation is not in liquid form, the data displayed may not properly reflect rainfall values.

Date Max Temp
(°C)
Min Temp
(°C)
Avg Temp
(°C)
Rain (mm) Avg RH (%)
Mon, Oct 22, 2018 12.4 1.1 7.5 0.0 70.7
Sun, Oct 21, 2018 6.9 2.7 4.6 0.0 65.4
Sat, Oct 20, 2018 12.4 6.1 9.3 7.2 80.8
Fri, Oct 19, 2018 15.5 7.4 11.7 0.0 62.5
Thu, Oct 18, 2018 9.2 1.9 5.4 0.0 66.1
Wed, Oct 17, 2018 11.6 3.4 8.0 0.0 63.8
Tue, Oct 16, 2018 12.9 2.1 7.6 0.0 62.0
DateTime Avg Temp (°C) Rain (mm) RH (%)
Tue, Oct 23, 2018 01:00 1.0 0.0 97.0
Tue, Oct 23, 2018 00:00 1.7 0.0 95.0
Mon, Oct 22, 2018 23:00 4.9 0.0 86.5
Mon, Oct 22, 2018 22:00 7.2 0.0 79.8
Mon, Oct 22, 2018 21:00 8.2 0.0 76.8
Mon, Oct 22, 2018 20:00 8.9 0.0 74.5
Mon, Oct 22, 2018 19:00 10.0 0.0 69.3
Mon, Oct 22, 2018 18:00 10.9 0.0 65.5
Mon, Oct 22, 2018 17:00 11.4 0.0 64.3
Mon, Oct 22, 2018 16:00 11.3 0.0 65.3
Mon, Oct 22, 2018 15:00 11.8 0.0 65.0
Mon, Oct 22, 2018 14:00 11.6 0.0 62.3
Mon, Oct 22, 2018 13:00 11.8 0.0 60.0
Mon, Oct 22, 2018 12:00 10.8 0.0 55.3
Mon, Oct 22, 2018 11:00 9.5 0.0 52.3
Mon, Oct 22, 2018 10:00 8.1 0.0 62.0
Mon, Oct 22, 2018 09:00 5.6 0.0 80.3
Mon, Oct 22, 2018 08:00 4.9 0.0 82.0
Mon, Oct 22, 2018 07:00 5.4 0.0 75.0
Mon, Oct 22, 2018 06:00 4.2 0.0 74.5
Mon, Oct 22, 2018 05:00 4.0 0.0 73.5
Mon, Oct 22, 2018 04:00 4.3 0.0 73.8
Mon, Oct 22, 2018 03:00 4.7 0.0 68.5
Mon, Oct 22, 2018 02:00 4.4 0.0 67.5
Mon, Oct 22, 2018 01:00 4.1 0.0 67.3
Mon, Oct 22, 2018 00:00 4.1 0.0 67.5
Sun, Oct 21, 2018 23:00 4.1 0.0 68.0
Sun, Oct 21, 2018 22:00 4.2 0.0 68.0
Sun, Oct 21, 2018 21:00 4.3 0.0 66.5
Sun, Oct 21, 2018 20:00 4.6 0.0 65.8
Sun, Oct 21, 2018 19:00 5.2 0.0 64.5
Sun, Oct 21, 2018 18:00 5.7 0.0 62.8
Sun, Oct 21, 2018 17:00 5.9 0.0 60.5
Sun, Oct 21, 2018 16:00 5.9 0.0 59.3
Sun, Oct 21, 2018 15:00 6.5 0.0 57.8
Sun, Oct 21, 2018 14:00 5.4 0.0 60.3
Sun, Oct 21, 2018 13:00 5.4 0.0 58.8
Sun, Oct 21, 2018 12:00 4.9 0.0 58.5
Sun, Oct 21, 2018 11:00 4.0 0.0 61.5
Sun, Oct 21, 2018 10:00 3.7 0.0 64.5
Sun, Oct 21, 2018 09:00 3.3 0.0 67.8
Sun, Oct 21, 2018 08:00 2.8 0.0 74.3
Sun, Oct 21, 2018 07:00 2.9 0.0 73.8
Sun, Oct 21, 2018 06:00 3.0 0.0 71.5
Sun, Oct 21, 2018 05:00 3.7 0.0 70.3
Sun, Oct 21, 2018 04:00 4.2 0.0 69.8
Sun, Oct 21, 2018 03:00 4.7 0.0 69.5
Sun, Oct 21, 2018 02:00 5.5 0.0 65.0


asterix Register now to access more data! asterix